Portada
METAR-TAF:

METAR-TAF

Aeroports :

Balikpapan, Indonèsia

latitud: 01-16-06S, longitud: 116-53-40E, altitud: 4 m

METAR: manca

Hora: 20:59 (13:59 UTC)

Pronòstic

L'informe es va fer fa 2 hores i 59 minuts, a les 11:00 UTC
Pronòstic vàlid del 14 a les 12 UTC al 15 a les 18 UTC
Vent 4 kt del Oest
Visibilitat 10 km o més
Escasses núvols a una alçada de 1800 ft
Probabilitat 30% :
Temporalment
l' 14 a les 12 UTC al 14 a les 15 UTC
Visibilitat: 5000 m
Escasses núvols a una alçada de 1500 ft, Cumulus congestus.
xàfecs de pluja

TAF: WALL 141100Z 1412/1518 28004KT 9999 FEW018 PROB30 TEMPO 1412/1415 5000 SHRA FEW015TCU

Observacions i pronòstics meteorològics de més de 4000 aeroports (METAR i TAF).

Les estacions disponibles són els punts grocs i vermells al mapa.

Posi el ratolí al punt desitjat per veure el nom de l'estació.

Feu clic per veure les observacions i els pronòstics meteorològics.

Per canviar el mapa: feu clic els botons verds amb una creu de color negre per apropar; al botó verd amb un guió per allunyar la imatge; o en les fletxes verdes per a mapes adjacents.


METAR-TAF: